Niota, Tennessee
Current Conditions -  °F | °C
As of 4:15 PM on Tuesday 27 Jan 2015 (Local Time) from KMMI Reporting Station
Overcast Overcast  
Wind Chill: 37°   Ceiling: 3300
Heat Index: 37°   Visibility: 10mi
Dew Point: 28°   Wind: 0mph
Humidity: 70%   Direction: NA
Pressure: 30.06"   Gusts: NA
Location:  35.51°N, 84.55°W
Report Text: KMMI 272115Z AUTO 00000KT 10SM OVC033 03/M02 A3006 RMK
Loading
Personal Weather Stations






























Interactive Weather Map New forecast layout! Learn more

10-Day Weather Forecast

Advertisements
Track Severe Weather on mobile